sensor_id;sensor_type;location;lat;lon;timestamp;P1;durP1;ratioP1;P2;durP2;ratioP2
59239;SDS011;45010;53.640;10.578;2023-02-28T00:02:42;1.85;;;0.80;;
59239;SDS011;45010;53.640;10.578;2023-02-28T00:05:43;1.38;;;0.85;;
59239;SDS011;45010;53.640;10.578;2023-02-28T00:08:44;1.52;;;0.88;;
59239;SDS011;45010;53.640;10.578;2023-02-28T00:11:44;0.98;;;0.70;;
59239;SDS011;45010;53.640;10.578;2023-02-28T00:14:44;1.55;;;0.75;;
59239;SDS011;45010;53.640;10.578;2023-02-28T00:17:45;0.98;;;0.88;;
59239;SDS011;45010;53.640;10.578;2023-02-28T00:20:46;1.40;;;0.80;;
59239;SDS011;45010;53.640;10.578;2023-02-28T00:23:46;1.63;;;0.95;;
59239;SDS011;45010;53.640;10.578;2023-02-28T00:26:47;0.68;;;0.60;;
59239;SDS011;45010;53.640;10.578;2023-02-28T00:29:47;1.02;;;0.80;;
59239;SDS011;45010;53.640;10.578;2023-02-28T00:32:48;1.65;;;1.05;;
59239;SDS011;45010;53.640;10.578;2023-02-28T00:35:49;0.80;;;0.63;;
59239;SDS011;45010;53.640;10.578;2023-02-28T00:38:51;0.98;;;0.80;;
59239;SDS011;45010;53.640;10.578;2023-02-28T00:41:52;1.50;;;0.85;;
59239;SDS011;45010;53.640;10.578;2023-02-28T00:44:52;1.65;;;0.90;;
59239;SDS011;45010;53.640;10.578;2023-02-28T00:47:53;1.00;;;0.75;;
59239;SDS011;45010;53.640;10.578;2023-02-28T00:50:53;1.13;;;0.80;;
59239;SDS011;45010;53.640;10.578;2023-02-28T00:53:53;0.93;;;0.80;;
59239;SDS011;45010;53.640;10.578;2023-02-28T00:56:54;1.00;;;0.55;;
59239;SDS011;45010;53.640;10.578;2023-02-28T00:59:54;2.03;;;0.73;;
59239;SDS011;45010;53.640;10.578;2023-02-28T01:02:55;0.98;;;0.70;;
59239;SDS011;45010;53.640;10.578;2023-02-28T01:05:55;1.10;;;0.75;;
59239;SDS011;45010;53.640;10.578;2023-02-28T01:08:55;0.80;;;0.70;;
59239;SDS011;45010;53.640;10.578;2023-02-28T01:11:56;1.58;;;0.80;;
59239;SDS011;45010;53.640;10.578;2023-02-28T01:14:56;2.38;;;0.80;;
59239;SDS011;45010;53.640;10.578;2023-02-28T01:17:57;0.82;;;0.70;;
59239;SDS011;45010;53.640;10.578;2023-02-28T01:20:58;1.10;;;0.60;;
59239;SDS011;45010;53.640;10.578;2023-02-28T01:24:04;0.93;;;0.60;;
59239;SDS011;45010;53.640;10.578;2023-02-28T01:27:05;1.17;;;0.60;;
59239;SDS011;45010;53.640;10.578;2023-02-28T01:30:06;1.48;;;0.70;;
59239;SDS011;45010;53.640;10.578;2023-02-28T01:33:07;0.88;;;0.70;;
59239;SDS011;45010;53.640;10.578;2023-02-28T01:36:12;1.10;;;0.68;;
59239;SDS011;45010;53.640;10.578;2023-02-28T01:39:12;1.48;;;0.75;;
59239;SDS011;45010;53.640;10.578;2023-02-28T01:42:13;0.98;;;0.80;;
59239;SDS011;45010;53.640;10.578;2023-02-28T01:45:22;1.90;;;0.80;;
59239;SDS011;45010;53.640;10.578;2023-02-28T01:48:25;0.98;;;0.70;;
59239;SDS011;45010;53.640;10.578;2023-02-28T01:51:44;1.23;;;0.70;;
59239;SDS011;45010;53.640;10.578;2023-02-28T01:54:51;1.35;;;0.68;;
59239;SDS011;45010;53.640;10.578;2023-02-28T01:57:55;0.68;;;0.65;;
59239;SDS011;45010;53.640;10.578;2023-02-28T02:00:58;0.68;;;0.60;;
59239;SDS011;45010;53.640;10.578;2023-02-28T02:03:59;1.38;;;0.77;;
59239;SDS011;45010;53.640;10.578;2023-02-28T02:07:02;1.90;;;0.63;;
59239;SDS011;45010;53.640;10.578;2023-02-28T02:10:05;1.23;;;0.60;;
59239;SDS011;45010;53.640;10.578;2023-02-28T02:13:25;0.98;;;0.70;;
59239;SDS011;45010;53.640;10.578;2023-02-28T02:17:10;1.73;;;0.93;;
59239;SDS011;45010;53.640;10.578;2023-02-28T02:20:51;1.17;;;0.88;;
59239;SDS011;45010;53.640;10.578;2023-02-28T02:24:10;0.80;;;0.70;;
59239;SDS011;45010;53.640;10.578;2023-02-28T02:27:50;1.80;;;0.60;;
59239;SDS011;45010;53.640;10.578;2023-02-28T02:37:38;0.50;;;0.50;;
59239;SDS011;45010;53.640;10.578;2023-02-28T02:44:30;0.70;;;0.50;;
59239;SDS011;45010;53.640;10.578;2023-02-28T02:47:36;0.73;;;0.70;;
59239;SDS011;45010;53.640;10.578;2023-02-28T02:50:41;0.88;;;0.60;;
59239;SDS011;45010;53.640;10.578;2023-02-28T02:53:46;1.85;;;0.70;;
59239;SDS011;45010;53.640;10.578;2023-02-28T02:56:51;0.98;;;0.80;;
59239;SDS011;45010;53.640;10.578;2023-02-28T02:59:52;1.90;;;0.68;;
59239;SDS011;45010;53.640;10.578;2023-02-28T03:02:56;0.75;;;0.65;;
59239;SDS011;45010;53.640;10.578;2023-02-28T03:05:58;0.88;;;0.50;;
59239;SDS011;45010;53.640;10.578;2023-02-28T03:09:00;0.70;;;0.60;;
59239;SDS011;45010;53.640;10.578;2023-02-28T03:12:01;0.73;;;0.70;;
59239;SDS011;45010;53.640;10.578;2023-02-28T03:18:10;0.52;;;0.52;;
59239;SDS011;45010;53.640;10.578;2023-02-28T03:21:35;0.95;;;0.50;;
59239;SDS011;45010;53.640;10.578;2023-02-28T03:24:45;1.70;;;0.52;;
59239;SDS011;45010;53.640;10.578;2023-02-28T03:28:05;0.70;;;0.60;;
59239;SDS011;45010;53.640;10.578;2023-02-28T03:31:27;1.95;;;0.80;;
59239;SDS011;45010;53.640;10.578;2023-02-28T03:34:33;0.65;;;0.57;;
59239;SDS011;45010;53.640;10.578;2023-02-28T03:37:37;1.10;;;0.60;;
59239;SDS011;45010;53.640;10.578;2023-02-28T03:40:41;0.47;;;0.47;;
59239;SDS011;45010;53.640;10.578;2023-02-28T03:43:50;0.68;;;0.60;;
59239;SDS011;45010;53.640;10.578;2023-02-28T03:47:02;0.50;;;0.50;;
59239;SDS011;45010;53.640;10.578;2023-02-28T03:50:22;0.98;;;0.60;;
59239;SDS011;45010;53.640;10.578;2023-02-28T03:53:37;0.55;;;0.55;;
59239;SDS011;45010;53.640;10.578;2023-02-28T03:56:51;0.75;;;0.60;;
59239;SDS011;45010;53.640;10.578;2023-02-28T03:59:57;0.80;;;0.60;;
59239;SDS011;45010;53.640;10.578;2023-02-28T04:03:00;1.08;;;0.50;;
59239;SDS011;45010;53.640;10.578;2023-02-28T04:06:01;0.70;;;0.60;;
59239;SDS011;45010;53.640;10.578;2023-02-28T04:09:03;0.43;;;0.43;;
59239;SDS011;45010;53.640;10.578;2023-02-28T04:12:05;1.38;;;0.70;;
59239;SDS011;45010;53.640;10.578;2023-02-28T04:15:05;0.57;;;0.50;;
59239;SDS011;45010;53.640;10.578;2023-02-28T04:18:06;0.60;;;0.47;;
59239;SDS011;45010;53.640;10.578;2023-02-28T04:21:07;0.60;;;0.60;;
59239;SDS011;45010;53.640;10.578;2023-02-28T04:24:08;0.70;;;0.47;;
59239;SDS011;45010;53.640;10.578;2023-02-28T04:27:13;0.68;;;0.50;;
59239;SDS011;45010;53.640;10.578;2023-02-28T04:30:15;1.00;;;0.88;;
59239;SDS011;45010;53.640;10.578;2023-02-28T04:33:16;0.70;;;0.55;;
59239;SDS011;45010;53.640;10.578;2023-02-28T04:36:16;0.50;;;0.50;;
59239;SDS011;45010;53.640;10.578;2023-02-28T04:39:21;1.08;;;0.70;;
59239;SDS011;45010;53.640;10.578;2023-02-28T04:42:22;0.75;;;0.50;;
59239;SDS011;45010;53.640;10.578;2023-02-28T04:45:23;0.50;;;0.45;;
59239;SDS011;45010;53.640;10.578;2023-02-28T04:48:23;0.85;;;0.50;;
59239;SDS011;45010;53.640;10.578;2023-02-28T04:51:24;0.40;;;0.40;;
59239;SDS011;45010;53.640;10.578;2023-02-28T04:54:24;0.80;;;0.50;;
59239;SDS011;45010;53.640;10.578;2023-02-28T04:57:25;0.35;;;0.30;;
59239;SDS011;45010;53.640;10.578;2023-02-28T05:00:25;0.80;;;0.60;;
59239;SDS011;45010;53.640;10.578;2023-02-28T05:03:26;0.75;;;0.73;;
59239;SDS011;45010;53.640;10.578;2023-02-28T05:06:27;1.50;;;0.70;;
59239;SDS011;45010;53.640;10.578;2023-02-28T05:09:28;1.20;;;0.50;;
59239;SDS011;45010;53.640;10.578;2023-02-28T05:12:29;0.50;;;0.50;;
59239;SDS011;45010;53.640;10.578;2023-02-28T05:15:29;0.60;;;0.50;;
59239;SDS011;45010;53.640;10.578;2023-02-28T05:18:29;0.50;;;0.50;;
59239;SDS011;45010;53.640;10.578;2023-02-28T05:21:31;0.70;;;0.50;;
59239;SDS011;45010;53.640;10.578;2023-02-28T05:24:33;0.93;;;0.70;;
59239;SDS011;45010;53.640;10.578;2023-02-28T05:27:34;0.63;;;0.50;;
59239;SDS011;45010;53.640;10.578;2023-02-28T05:30:34;1.10;;;0.50;;
59239;SDS011;45010;53.640;10.578;2023-02-28T05:33:35;0.70;;;0.50;;
59239;SDS011;45010;53.640;10.578;2023-02-28T05:36:36;0.60;;;0.60;;
59239;SDS011;45010;53.640;10.578;2023-02-28T05:39:36;0.82;;;0.63;;
59239;SDS011;45010;53.640;10.578;2023-02-28T05:42:37;0.60;;;0.50;;
59239;SDS011;45010;53.640;10.578;2023-02-28T05:45:38;0.80;;;0.50;;
59239;SDS011;45010;53.640;10.578;2023-02-28T05:48:38;1.27;;;0.52;;
59239;SDS011;45010;53.640;10.578;2023-02-28T05:51:40;0.50;;;0.50;;
59239;SDS011;45010;53.640;10.578;2023-02-28T05:54:40;1.02;;;0.57;;
59239;SDS011;45010;53.640;10.578;2023-02-28T05:57:41;0.65;;;0.55;;
59239;SDS011;45010;53.640;10.578;2023-02-28T06:00:42;0.50;;;0.40;;
59239;SDS011;45010;53.640;10.578;2023-02-28T06:03:42;0.43;;;0.43;;
59239;SDS011;45010;53.640;10.578;2023-02-28T06:06:46;1.00;;;0.70;;
59239;SDS011;45010;53.640;10.578;2023-02-28T06:09:47;0.60;;;0.60;;
59239;SDS011;45010;53.640;10.578;2023-02-28T06:12:48;1.08;;;0.70;;
59239;SDS011;45010;53.640;10.578;2023-02-28T06:15:48;1.48;;;0.63;;
59239;SDS011;45010;53.640;10.578;2023-02-28T06:18:48;1.05;;;0.63;;
59239;SDS011;45010;53.640;10.578;2023-02-28T06:21:49;0.88;;;0.70;;
59239;SDS011;45010;53.640;10.578;2023-02-28T06:24:52;0.77;;;0.63;;
59239;SDS011;45010;53.640;10.578;2023-02-28T06:27:53;0.85;;;0.50;;
59239;SDS011;45010;53.640;10.578;2023-02-28T06:30:54;0.50;;;0.50;;
59239;SDS011;45010;53.640;10.578;2023-02-28T06:33:55;0.73;;;0.60;;
59239;SDS011;45010;53.640;10.578;2023-02-28T06:36:55;1.20;;;0.80;;
59239;SDS011;45010;53.640;10.578;2023-02-28T06:39:56;0.40;;;0.40;;
59239;SDS011;45010;53.640;10.578;2023-02-28T06:42:56;0.82;;;0.52;;
59239;SDS011;45010;53.640;10.578;2023-02-28T06:45:57;0.77;;;0.50;;
59239;SDS011;45010;53.640;10.578;2023-02-28T06:48:59;1.00;;;0.70;;
59239;SDS011;45010;53.640;10.578;2023-02-28T06:51:59;1.02;;;0.70;;
59239;SDS011;45010;53.640;10.578;2023-02-28T06:54:59;0.75;;;0.57;;
59239;SDS011;45010;53.640;10.578;2023-02-28T06:58:00;1.27;;;0.80;;
59239;SDS011;45010;53.640;10.578;2023-02-28T07:01:00;2.95;;;0.70;;
59239;SDS011;45010;53.640;10.578;2023-02-28T07:04:01;1.83;;;0.70;;
59239;SDS011;45010;53.640;10.578;2023-02-28T07:07:02;1.70;;;0.70;;
59239;SDS011;45010;53.640;10.578;2023-02-28T07:10:03;1.33;;;0.77;;
59239;SDS011;45010;53.640;10.578;2023-02-28T07:13:05;1.67;;;0.75;;
59239;SDS011;45010;53.640;10.578;2023-02-28T07:16:08;1.08;;;0.70;;
59239;SDS011;45010;53.640;10.578;2023-02-28T07:19:10;1.02;;;0.88;;
59239;SDS011;45010;53.640;10.578;2023-02-28T07:22:11;1.48;;;0.90;;
59239;SDS011;45010;53.640;10.578;2023-02-28T07:25:11;1.83;;;0.65;;
59239;SDS011;45010;53.640;10.578;2023-02-28T07:28:12;1.15;;;0.70;;
59239;SDS011;45010;53.640;10.578;2023-02-28T07:31:13;1.30;;;0.70;;
59239;SDS011;45010;53.640;10.578;2023-02-28T07:34:15;2.08;;;0.85;;
59239;SDS011;45010;53.640;10.578;2023-02-28T07:37:16;3.08;;;0.80;;
59239;SDS011;45010;53.640;10.578;2023-02-28T07:40:16;1.20;;;0.80;;
59239;SDS011;45010;53.640;10.578;2023-02-28T07:43:17;0.82;;;0.60;;
59239;SDS011;45010;53.640;10.578;2023-02-28T07:46:18;0.93;;;0.80;;
59239;SDS011;45010;53.640;10.578;2023-02-28T07:49:20;2.78;;;0.85;;
59239;SDS011;45010;53.640;10.578;2023-02-28T07:52:20;3.03;;;0.70;;
59239;SDS011;45010;53.640;10.578;2023-02-28T07:55:20;1.08;;;0.82;;
59239;SDS011;45010;53.640;10.578;2023-02-28T07:58:21;1.70;;;1.20;;
59239;SDS011;45010;53.640;10.578;2023-02-28T08:01:21;3.25;;;1.88;;
59239;SDS011;45010;53.640;10.578;2023-02-28T08:04:21;2.05;;;1.20;;
59239;SDS011;45010;53.640;10.578;2023-02-28T08:07:22;1.45;;;0.77;;
59239;SDS011;45010;53.640;10.578;2023-02-28T08:10:22;1.67;;;1.10;;
59239;SDS011;45010;53.640;10.578;2023-02-28T08:13:23;3.67;;;1.45;;
59239;SDS011;45010;53.640;10.578;2023-02-28T08:16:24;2.03;;;1.02;;
59239;SDS011;45010;53.640;10.578;2023-02-28T08:19:25;2.47;;;1.10;;
59239;SDS011;45010;53.640;10.578;2023-02-28T08:22:25;3.13;;;1.25;;
59239;SDS011;45010;53.640;10.578;2023-02-28T08:25:25;2.35;;;1.02;;
59239;SDS011;45010;53.640;10.578;2023-02-28T08:28:26;3.47;;;1.30;;
59239;SDS011;45010;53.640;10.578;2023-02-28T08:31:26;2.65;;;0.98;;
59239;SDS011;45010;53.640;10.578;2023-02-28T08:34:26;1.52;;;1.05;;
59239;SDS011;45010;53.640;10.578;2023-02-28T08:37:26;2.42;;;0.98;;
59239;SDS011;45010;53.640;10.578;2023-02-28T08:40:27;2.42;;;1.20;;
59239;SDS011;45010;53.640;10.578;2023-02-28T08:43:27;2.90;;;1.52;;
59239;SDS011;45010;53.640;10.578;2023-02-28T08:46:28;1.77;;;1.08;;
59239;SDS011;45010;53.640;10.578;2023-02-28T08:49:28;1.38;;;0.98;;
59239;SDS011;45010;53.640;10.578;2023-02-28T08:52:29;2.90;;;0.80;;
59239;SDS011;45010;53.640;10.578;2023-02-28T08:55:29;2.17;;;1.10;;
59239;SDS011;45010;53.640;10.578;2023-02-28T08:58:30;2.33;;;1.05;;
59239;SDS011;45010;53.640;10.578;2023-02-28T09:01:30;2.63;;;1.00;;
59239;SDS011;45010;53.640;10.578;2023-02-28T09:04:31;2.28;;;1.08;;
59239;SDS011;45010;53.640;10.578;2023-02-28T09:07:33;3.20;;;1.10;;
59239;SDS011;45010;53.640;10.578;2023-02-28T09:10:34;1.38;;;1.00;;
59239;SDS011;45010;53.640;10.578;2023-02-28T09:13:34;3.55;;;1.10;;
59239;SDS011;45010;53.640;10.578;2023-02-28T09:16:35;1.48;;;0.90;;
59239;SDS011;45010;53.640;10.578;2023-02-28T09:19:35;2.22;;;0.80;;
59239;SDS011;45010;53.640;10.578;2023-02-28T09:22:36;2.53;;;1.45;;
59239;SDS011;45010;53.640;10.578;2023-02-28T09:25:37;1.10;;;1.00;;
59239;SDS011;45010;53.640;10.578;2023-02-28T09:28:37;3.03;;;1.35;;
59239;SDS011;45010;53.640;10.578;2023-02-28T09:31:38;3.05;;;1.10;;
59239;SDS011;45010;53.640;10.578;2023-02-28T09:34:38;1.33;;;1.08;;
59239;SDS011;45010;53.640;10.578;2023-02-28T09:37:38;1.70;;;1.10;;
59239;SDS011;45010;53.640;10.578;2023-02-28T09:40:43;4.50;;;1.30;;
59239;SDS011;45010;53.640;10.578;2023-02-28T09:43:50;4.60;;;1.20;;
59239;SDS011;45010;53.640;10.578;2023-02-28T09:46:55;4.63;;;1.17;;
59239;SDS011;45010;53.640;10.578;2023-02-28T09:50:03;3.17;;;1.30;;
59239;SDS011;45010;53.640;10.578;2023-02-28T09:53:34;2.60;;;1.23;;
59239;SDS011;45010;53.640;10.578;2023-02-28T09:56:41;2.85;;;1.20;;
59239;SDS011;45010;53.640;10.578;2023-02-28T10:06:33;4.07;;;1.67;;
59239;SDS011;45010;53.640;10.578;2023-02-28T10:09:41;4.55;;;1.52;;
59239;SDS011;45010;53.640;10.578;2023-02-28T10:12:41;4.95;;;2.00;;
59239;SDS011;45010;53.640;10.578;2023-02-28T10:15:45;4.68;;;1.30;;
59239;SDS011;45010;53.640;10.578;2023-02-28T10:18:50;2.42;;;1.30;;
59239;SDS011;45010;53.640;10.578;2023-02-28T10:24:58;3.80;;;1.40;;
59239;SDS011;45010;53.640;10.578;2023-02-28T10:28:10;1.83;;;1.08;;
59239;SDS011;45010;53.640;10.578;2023-02-28T10:31:18;1.80;;;0.80;;
59239;SDS011;45010;53.640;10.578;2023-02-28T10:34:19;2.25;;;0.80;;
59239;SDS011;45010;53.640;10.578;2023-02-28T10:37:19;2.40;;;0.68;;
59239;SDS011;45010;53.640;10.578;2023-02-28T10:43:21;1.83;;;0.65;;
59239;SDS011;45010;53.640;10.578;2023-02-28T10:46:23;2.28;;;0.90;;
59239;SDS011;45010;53.640;10.578;2023-02-28T10:49:27;1.55;;;0.82;;
59239;SDS011;45010;53.640;10.578;2023-02-28T10:52:35;1.55;;;0.65;;
59239;SDS011;45010;53.640;10.578;2023-02-28T10:55:38;2.53;;;0.70;;
59239;SDS011;45010;53.640;10.578;2023-02-28T10:58:46;2.42;;;0.57;;
59239;SDS011;45010;53.640;10.578;2023-02-28T11:01:58;1.08;;;0.57;;
59239;SDS011;45010;53.640;10.578;2023-02-28T11:04:58;1.27;;;0.50;;
59239;SDS011;45010;53.640;10.578;2023-02-28T11:11:10;1.63;;;0.60;;
59239;SDS011;45010;53.640;10.578;2023-02-28T11:14:47;2.85;;;0.70;;
59239;SDS011;45010;53.640;10.578;2023-02-28T11:18:14;1.40;;;0.63;;
59239;SDS011;45010;53.640;10.578;2023-02-28T11:21:25;0.85;;;0.50;;
59239;SDS011;45010;53.640;10.578;2023-02-28T11:24:30;2.95;;;0.60;;
59239;SDS011;45010;53.640;10.578;2023-02-28T11:27:51;0.70;;;0.60;;
59239;SDS011;45010;53.640;10.578;2023-02-28T11:31:01;1.02;;;0.50;;
59239;SDS011;45010;53.640;10.578;2023-02-28T11:34:22;1.15;;;0.60;;
59239;SDS011;45010;53.640;10.578;2023-02-28T11:37:25;2.88;;;0.65;;
59239;SDS011;45010;53.640;10.578;2023-02-28T11:57:38;2.58;;;0.80;;
59239;SDS011;45010;53.640;10.578;2023-02-28T12:04:17;1.73;;;0.60;;
59239;SDS011;45010;53.640;10.578;2023-02-28T12:14:19;0.80;;;0.55;;
59239;SDS011;45010;53.640;10.578;2023-02-28T12:20:42;0.65;;;0.52;;
59239;SDS011;45010;53.640;10.578;2023-02-28T12:27:20;0.80;;;0.60;;
59239;SDS011;45010;53.640;10.578;2023-02-28T12:30:25;0.70;;;0.40;;
59239;SDS011;45010;53.640;10.578;2023-02-28T12:33:34;1.05;;;0.50;;
59239;SDS011;45010;53.640;10.578;2023-02-28T12:36:39;1.33;;;0.60;;
59239;SDS011;45010;53.640;10.578;2023-02-28T12:39:45;1.95;;;0.60;;
59239;SDS011;45010;53.640;10.578;2023-02-28T12:42:52;2.25;;;0.60;;
59239;SDS011;45010;53.640;10.578;2023-02-28T12:46:19;4.95;;;1.15;;
59239;SDS011;45010;53.640;10.578;2023-02-28T12:49:27;3.85;;;0.80;;
59239;SDS011;45010;53.640;10.578;2023-02-28T12:52:42;1.48;;;0.85;;
59239;SDS011;45010;53.640;10.578;2023-02-28T12:56:04;1.40;;;0.70;;
59239;SDS011;45010;53.640;10.578;2023-02-28T12:59:14;1.60;;;0.60;;
59239;SDS011;45010;53.640;10.578;2023-02-28T13:02:42;2.15;;;0.70;;
59239;SDS011;45010;53.640;10.578;2023-02-28T13:09:18;1.75;;;0.60;;
59239;SDS011;45010;53.640;10.578;2023-02-28T13:12:19;0.90;;;0.52;;
59239;SDS011;45010;53.640;10.578;2023-02-28T13:15:27;2.08;;;0.55;;
59239;SDS011;45010;53.640;10.578;2023-02-28T13:18:36;1.55;;;0.43;;
59239;SDS011;45010;53.640;10.578;2023-02-28T13:21:43;2.15;;;0.60;;
59239;SDS011;45010;53.640;10.578;2023-02-28T13:24:45;1.50;;;0.80;;
59239;SDS011;45010;53.640;10.578;2023-02-28T13:27:48;0.80;;;0.40;;
59239;SDS011;45010;53.640;10.578;2023-02-28T13:40:28;1.35;;;0.60;;
59239;SDS011;45010;53.640;10.578;2023-02-28T13:50:20;1.77;;;0.60;;
59239;SDS011;45010;53.640;10.578;2023-02-28T13:53:34;0.95;;;0.50;;
59239;SDS011;45010;53.640;10.578;2023-02-28T13:57:02;1.45;;;0.73;;
59239;SDS011;45010;53.640;10.578;2023-02-28T14:06:50;2.78;;;1.10;;
59239;SDS011;45010;53.640;10.578;2023-02-28T14:09:57;1.90;;;0.82;;
59239;SDS011;45010;53.640;10.578;2023-02-28T14:16:13;4.40;;;2.28;;
59239;SDS011;45010;53.640;10.578;2023-02-28T14:19:25;3.90;;;2.15;;
59239;SDS011;45010;53.640;10.578;2023-02-28T14:29:32;5.70;;;2.83;;
59239;SDS011;45010;53.640;10.578;2023-02-28T14:36:16;9.35;;;2.42;;
59239;SDS011;45010;53.640;10.578;2023-02-28T14:39:24;3.97;;;2.15;;
59239;SDS011;45010;53.640;10.578;2023-02-28T14:42:35;4.30;;;2.20;;
59239;SDS011;45010;53.640;10.578;2023-02-28T14:45:44;4.45;;;1.88;;
59239;SDS011;45010;53.640;10.578;2023-02-28T14:48:51;3.05;;;1.77;;
59239;SDS011;45010;53.640;10.578;2023-02-28T14:55:21;3.38;;;2.05;;
59239;SDS011;45010;53.640;10.578;2023-02-28T14:58:27;4.20;;;1.70;;
59239;SDS011;45010;53.640;10.578;2023-02-28T15:01:31;3.60;;;1.80;;
59239;SDS011;45010;53.640;10.578;2023-02-28T15:04:33;3.95;;;1.80;;
59239;SDS011;45010;53.640;10.578;2023-02-28T15:07:33;4.47;;;1.60;;
59239;SDS011;45010;53.640;10.578;2023-02-28T15:10:34;3.00;;;1.70;;
59239;SDS011;45010;53.640;10.578;2023-02-28T15:16:43;2.78;;;1.67;;
59239;SDS011;45010;53.640;10.578;2023-02-28T15:19:48;4.70;;;1.98;;
59239;SDS011;45010;53.640;10.578;2023-02-28T15:22:51;3.53;;;1.90;;
59239;SDS011;45010;53.640;10.578;2023-02-28T15:25:55;3.42;;;1.65;;
59239;SDS011;45010;53.640;10.578;2023-02-28T15:29:00;3.80;;;1.50;;
59239;SDS011;45010;53.640;10.578;2023-02-28T15:32:05;3.15;;;1.38;;
59239;SDS011;45010;53.640;10.578;2023-02-28T15:35:17;3.03;;;2.03;;
59239;SDS011;45010;53.640;10.578;2023-02-28T15:41:25;3.28;;;1.52;;
59239;SDS011;45010;53.640;10.578;2023-02-28T15:44:26;3.15;;;1.52;;
59239;SDS011;45010;53.640;10.578;2023-02-28T15:47:30;1.77;;;1.40;;
59239;SDS011;45010;53.640;10.578;2023-02-28T15:50:30;2.58;;;1.20;;
59239;SDS011;45010;53.640;10.578;2023-02-28T15:53:32;2.22;;;1.15;;
59239;SDS011;45010;53.640;10.578;2023-02-28T15:56:44;4.05;;;1.67;;
59239;SDS011;45010;53.640;10.578;2023-02-28T15:59:57;1.83;;;1.20;;
59239;SDS011;45010;53.640;10.578;2023-02-28T16:03:01;2.53;;;1.40;;
59239;SDS011;45010;53.640;10.578;2023-02-28T16:09:22;2.50;;;1.30;;
59239;SDS011;45010;53.640;10.578;2023-02-28T16:12:24;3.53;;;1.42;;
59239;SDS011;45010;53.640;10.578;2023-02-28T16:15:28;2.63;;;1.42;;
59239;SDS011;45010;53.640;10.578;2023-02-28T16:18:30;2.97;;;1.23;;
59239;SDS011;45010;53.640;10.578;2023-02-28T16:21:31;3.63;;;1.20;;
59239;SDS011;45010;53.640;10.578;2023-02-28T16:24:31;2.78;;;1.50;;
59239;SDS011;45010;53.640;10.578;2023-02-28T16:27:33;4.68;;;1.50;;
59239;SDS011;45010;53.640;10.578;2023-02-28T16:30:37;4.03;;;1.38;;
59239;SDS011;45010;53.640;10.578;2023-02-28T16:33:37;4.18;;;1.88;;
59239;SDS011;45010;53.640;10.578;2023-02-28T16:36:37;3.97;;;1.90;;
59239;SDS011;45010;53.640;10.578;2023-02-28T16:39:38;5.10;;;1.27;;
59239;SDS011;45010;53.640;10.578;2023-02-28T16:42:39;3.75;;;1.77;;
59239;SDS011;45010;53.640;10.578;2023-02-28T16:45:40;2.30;;;1.30;;
59239;SDS011;45010;53.640;10.578;2023-02-28T16:48:41;3.25;;;1.40;;
59239;SDS011;45010;53.640;10.578;2023-02-28T16:51:41;3.23;;;1.50;;
59239;SDS011;45010;53.640;10.578;2023-02-28T16:54:41;3.17;;;1.35;;
59239;SDS011;45010;53.640;10.578;2023-02-28T16:57:42;2.38;;;1.20;;
59239;SDS011;45010;53.640;10.578;2023-02-28T17:00:43;3.30;;;1.67;;
59239;SDS011;45010;53.640;10.578;2023-02-28T17:03:43;2.67;;;1.60;;
59239;SDS011;45010;53.640;10.578;2023-02-28T17:06:44;3.08;;;1.73;;
59239;SDS011;45010;53.640;10.578;2023-02-28T17:09:44;4.50;;;2.42;;
59239;SDS011;45010;53.640;10.578;2023-02-28T17:12:45;5.55;;;2.38;;
59239;SDS011;45010;53.640;10.578;2023-02-28T17:15:46;4.10;;;2.22;;
59239;SDS011;45010;53.640;10.578;2023-02-28T17:18:47;6.60;;;2.63;;
59239;SDS011;45010;53.640;10.578;2023-02-28T17:21:48;6.05;;;2.58;;
59239;SDS011;45010;53.640;10.578;2023-02-28T17:24:48;4.75;;;2.25;;
59239;SDS011;45010;53.640;10.578;2023-02-28T17:27:49;3.55;;;2.00;;
59239;SDS011;45010;53.640;10.578;2023-02-28T17:30:51;3.72;;;1.70;;
59239;SDS011;45010;53.640;10.578;2023-02-28T17:33:52;4.85;;;2.30;;
59239;SDS011;45010;53.640;10.578;2023-02-28T17:36:54;6.03;;;2.10;;
59239;SDS011;45010;53.640;10.578;2023-02-28T17:39:54;4.63;;;1.75;;
59239;SDS011;45010;53.640;10.578;2023-02-28T17:42:54;3.92;;;1.90;;
59239;SDS011;45010;53.640;10.578;2023-02-28T17:45:56;3.97;;;1.70;;
59239;SDS011;45010;53.640;10.578;2023-02-28T17:48:58;5.00;;;1.80;;
59239;SDS011;45010;53.640;10.578;2023-02-28T17:51:58;3.45;;;1.95;;
59239;SDS011;45010;53.640;10.578;2023-02-28T17:54:58;4.00;;;1.85;;
59239;SDS011;45010;53.640;10.578;2023-02-28T17:57:59;3.53;;;1.63;;
59239;SDS011;45010;53.640;10.578;2023-02-28T18:00:59;2.40;;;1.38;;
59239;SDS011;45010;53.640;10.578;2023-02-28T18:03:59;3.58;;;1.58;;
59239;SDS011;45010;53.640;10.578;2023-02-28T18:07:00;2.92;;;1.40;;
59239;SDS011;45010;53.640;10.578;2023-02-28T18:10:00;4.90;;;1.40;;
59239;SDS011;45010;53.640;10.578;2023-02-28T18:13:00;2.08;;;1.30;;
59239;SDS011;45010;53.640;10.578;2023-02-28T18:16:00;6.18;;;1.27;;
59239;SDS011;45010;53.640;10.578;2023-02-28T18:19:01;2.95;;;1.20;;
59239;SDS011;45010;53.640;10.578;2023-02-28T18:22:05;4.30;;;1.65;;
59239;SDS011;45010;53.640;10.578;2023-02-28T18:25:07;3.83;;;1.52;;
59239;SDS011;45010;53.640;10.578;2023-02-28T18:28:10;2.00;;;1.20;;
59239;SDS011;45010;53.640;10.578;2023-02-28T18:31:12;3.53;;;1.20;;
59239;SDS011;45010;53.640;10.578;2023-02-28T18:34:15;2.85;;;1.23;;
59239;SDS011;45010;53.640;10.578;2023-02-28T18:37:16;4.25;;;1.55;;
59239;SDS011;45010;53.640;10.578;2023-02-28T18:40:17;3.20;;;0.90;;
59239;SDS011;45010;53.640;10.578;2023-02-28T18:43:17;2.30;;;1.20;;
59239;SDS011;45010;53.640;10.578;2023-02-28T18:46:18;1.83;;;1.15;;
59239;SDS011;45010;53.640;10.578;2023-02-28T18:49:19;2.42;;;1.25;;
59239;SDS011;45010;53.640;10.578;2023-02-28T18:52:20;3.05;;;1.10;;
59239;SDS011;45010;53.640;10.578;2023-02-28T18:55:20;1.95;;;1.20;;
59239;SDS011;45010;53.640;10.578;2023-02-28T18:58:21;2.53;;;1.40;;
59239;SDS011;45010;53.640;10.578;2023-02-28T19:01:23;2.67;;;1.17;;
59239;SDS011;45010;53.640;10.578;2023-02-28T19:04:27;1.92;;;1.02;;
59239;SDS011;45010;53.640;10.578;2023-02-28T19:07:28;2.13;;;1.02;;
59239;SDS011;45010;53.640;10.578;2023-02-28T19:10:28;2.53;;;1.20;;
59239;SDS011;45010;53.640;10.578;2023-02-28T19:13:28;2.92;;;1.27;;
59239;SDS011;45010;53.640;10.578;2023-02-28T19:16:30;2.33;;;0.95;;
59239;SDS011;45010;53.640;10.578;2023-02-28T19:19:31;2.53;;;1.00;;
59239;SDS011;45010;53.640;10.578;2023-02-28T19:22:31;1.98;;;1.05;;
59239;SDS011;45010;53.640;10.578;2023-02-28T19:25:32;1.92;;;1.05;;
59239;SDS011;45010;53.640;10.578;2023-02-28T19:28:32;2.50;;;1.30;;
59239;SDS011;45010;53.640;10.578;2023-02-28T19:31:33;1.60;;;1.10;;
59239;SDS011;45010;53.640;10.578;2023-02-28T19:34:33;1.73;;;0.90;;
59239;SDS011;45010;53.640;10.578;2023-02-28T19:37:36;2.22;;;0.85;;
59239;SDS011;45010;53.640;10.578;2023-02-28T19:40:38;3.50;;;1.00;;
59239;SDS011;45010;53.640;10.578;2023-02-28T19:43:38;1.63;;;0.75;;
59239;SDS011;45010;53.640;10.578;2023-02-28T19:46:39;1.52;;;0.80;;
59239;SDS011;45010;53.640;10.578;2023-02-28T19:49:40;1.65;;;0.85;;
59239;SDS011;45010;53.640;10.578;2023-02-28T19:52:40;1.70;;;1.00;;
59239;SDS011;45010;53.640;10.578;2023-02-28T19:55:42;6.15;;;0.90;;
59239;SDS011;45010;53.640;10.578;2023-02-28T19:58:42;1.08;;;0.70;;
59239;SDS011;45010;53.640;10.578;2023-02-28T20:01:42;2.53;;;0.63;;
59239;SDS011;45010;53.640;10.578;2023-02-28T20:04:45;1.27;;;0.80;;
59239;SDS011;45010;53.640;10.578;2023-02-28T20:07:46;1.10;;;0.70;;